sensor_id;sensor_type;location;lat;lon;timestamp;pressure;altitude;pressure_sealevel;temperature;humidity
25080;BME280;13071;48.868;9.996;2022-08-18T00:01:54;96283.75;;;19.42;100.00
25080;BME280;13071;48.868;9.996;2022-08-18T00:04:26;96290.03;;;19.50;100.00
25080;BME280;13071;48.868;9.996;2022-08-18T00:06:53;96275.94;;;19.48;100.00
25080;BME280;13071;48.868;9.996;2022-08-18T00:09:20;96273.97;;;19.49;100.00
25080;BME280;13071;48.868;9.996;2022-08-18T00:11:46;96271.22;;;19.38;100.00
25080;BME280;13071;48.868;9.996;2022-08-18T00:14:16;96262.25;;;19.13;100.00
25080;BME280;13071;48.868;9.996;2022-08-18T00:16:43;96254.00;;;19.20;100.00
25080;BME280;13071;48.868;9.996;2022-08-18T00:19:11;96247.72;;;19.23;100.00
25080;BME280;13071;48.868;9.996;2022-08-18T00:21:38;96250.44;;;19.30;100.00
25080;BME280;13071;48.868;9.996;2022-08-18T00:24:05;96247.72;;;19.23;100.00
25080;BME280;13071;48.868;9.996;2022-08-18T00:26:31;96250.84;;;19.32;100.00
25080;BME280;13071;48.868;9.996;2022-08-18T00:28:58;96248.09;;;19.35;100.00
25080;BME280;13071;48.868;9.996;2022-08-18T00:31:24;96250.06;;;19.28;100.00
25080;BME280;13071;48.868;9.996;2022-08-18T00:33:51;96238.31;;;19.27;100.00
25080;BME280;13071;48.868;9.996;2022-08-18T00:36:19;96247.72;;;19.23;100.00
25080;BME280;13071;48.868;9.996;2022-08-18T00:38:46;96246.56;;;19.20;100.00
25080;BME280;13071;48.868;9.996;2022-08-18T00:41:12;96240.69;;;19.18;100.00
25080;BME280;13071;48.868;9.996;2022-08-18T00:43:42;96241.47;;;19.15;100.00
25080;BME280;13071;48.868;9.996;2022-08-18T00:46:13;96235.19;;;19.22;100.00
25080;BME280;13071;48.868;9.996;2022-08-18T00:48:40;96230.88;;;19.24;100.00
25080;BME280;13071;48.868;9.996;2022-08-18T00:51:10;96226.94;;;19.25;100.00
25080;BME280;13071;48.868;9.996;2022-08-18T00:53:43;96213.25;;;19.22;100.00
25080;BME280;13071;48.868;9.996;2022-08-18T00:56:15;96214.81;;;19.16;100.00
25080;BME280;13071;48.868;9.996;2022-08-18T00:58:48;96209.72;;;19.18;100.00
25080;BME280;13071;48.868;9.996;2022-08-18T01:01:19;96216.00;;;19.22;100.00
25080;BME280;13071;48.868;9.996;2022-08-18T01:03:49;96205.03;;;19.18;100.00
25080;BME280;13071;48.868;9.996;2022-08-18T01:06:27;96203.06;;;19.15;100.00
25080;BME280;13071;48.868;9.996;2022-08-18T01:08:58;96212.84;;;19.20;100.00
25080;BME280;13071;48.868;9.996;2022-08-18T01:11:26;96199.16;;;19.13;100.00
25080;BME280;13071;48.868;9.996;2022-08-18T01:13:52;96205.84;;;19.08;100.00
25080;BME280;13071;48.868;9.996;2022-08-18T01:16:19;96208.16;;;19.10;100.00
25080;BME280;13071;48.868;9.996;2022-08-18T01:19:00;96201.91;;;19.06;100.00
25080;BME280;13071;48.868;9.996;2022-08-18T01:21:48;96198.75;;;19.11;100.00
25080;BME280;13071;48.868;9.996;2022-08-18T01:24:19;96190.53;;;19.14;100.00
25080;BME280;13071;48.868;9.996;2022-08-18T01:27:07;96200.75;;;19.07;100.00
25080;BME280;13071;48.868;9.996;2022-08-18T01:29:34;96199.94;;;19.10;100.00
25080;BME280;13071;48.868;9.996;2022-08-18T01:32:01;96197.59;;;19.08;100.00
25080;BME280;13071;48.868;9.996;2022-08-18T01:34:28;96192.88;;;19.23;100.00
25080;BME280;13071;48.868;9.996;2022-08-18T01:36:55;96189.75;;;19.14;100.00
25080;BME280;13071;48.868;9.996;2022-08-18T01:39:24;96182.72;;;19.06;100.00
25080;BME280;13071;48.868;9.996;2022-08-18T01:41:50;96169.41;;;19.01;100.00
25080;BME280;13071;48.868;9.996;2022-08-18T01:44:17;96167.03;;;19.10;100.00
25080;BME280;13071;48.868;9.996;2022-08-18T01:46:44;96159.22;;;19.01;100.00
25080;BME280;13071;48.868;9.996;2022-08-18T01:49:11;96152.19;;;19.04;100.00
25080;BME280;13071;48.868;9.996;2022-08-18T01:51:38;96146.25;;;19.12;100.00
25080;BME280;13071;48.868;9.996;2022-08-18T01:54:08;96141.19;;;19.04;100.00
25080;BME280;13071;48.868;9.996;2022-08-18T01:56:37;96137.25;;;19.05;100.00
25080;BME280;13071;48.868;9.996;2022-08-18T01:59:05;96137.25;;;19.05;100.00
25080;BME280;13071;48.868;9.996;2022-08-18T02:01:39;96135.72;;;19.00;100.00
25080;BME280;13071;48.868;9.996;2022-08-18T02:04:06;96129.06;;;18.97;100.00
25080;BME280;13071;48.868;9.996;2022-08-18T02:06:33;96128.69;;;18.92;100.00
25080;BME280;13071;48.868;9.996;2022-08-18T02:09:00;96132.59;;;18.91;100.00
25080;BME280;13071;48.868;9.996;2022-08-18T02:11:26;96121.63;;;18.98;100.00
25080;BME280;13071;48.868;9.996;2022-08-18T02:13:54;96119.66;;;18.98;100.00
25080;BME280;13071;48.868;9.996;2022-08-18T02:16:21;96115.75;;;18.96;100.00
25080;BME280;13071;48.868;9.996;2022-08-18T02:18:48;96127.53;;;18.89;100.00
25080;BME280;13071;48.868;9.996;2022-08-18T02:21:17;96109.88;;;18.90;100.00
25080;BME280;13071;48.868;9.996;2022-08-18T02:23:45;96109.88;;;18.97;100.00
25080;BME280;13071;48.868;9.996;2022-08-18T02:26:14;96103.59;;;19.01;100.00
25080;BME280;13071;48.868;9.996;2022-08-18T02:28:42;96100.84;;;19.01;100.00
25080;BME280;13071;48.868;9.996;2022-08-18T02:31:12;96101.66;;;18.90;100.00
25080;BME280;13071;48.868;9.996;2022-08-18T02:33:41;96090.31;;;18.88;100.00
25080;BME280;13071;48.868;9.996;2022-08-18T02:36:08;96087.94;;;18.90;100.00
25080;BME280;13071;48.868;9.996;2022-08-18T02:38:35;96080.53;;;18.87;100.00
25080;BME280;13071;48.868;9.996;2022-08-18T02:41:03;96079.75;;;18.80;100.00
25080;BME280;13071;48.868;9.996;2022-08-18T02:43:32;96075.84;;;18.77;100.00
25080;BME280;13071;48.868;9.996;2022-08-18T02:45:58;96073.88;;;18.81;100.00
25080;BME280;13071;48.868;9.996;2022-08-18T02:48:26;96076.25;;;18.79;100.00
25080;BME280;13071;48.868;9.996;2022-08-18T02:50:59;96082.09;;;18.81;100.00
25080;BME280;13071;48.868;9.996;2022-08-18T02:53:26;96080.94;;;18.82;100.00
25080;BME280;13071;48.868;9.996;2022-08-18T02:55:54;96081.75;;;18.79;100.00
25080;BME280;13071;48.868;9.996;2022-08-18T02:58:20;96084.06;;;18.81;100.00
25080;BME280;13071;48.868;9.996;2022-08-18T03:00:47;96092.69;;;18.83;100.00
25080;BME280;13071;48.868;9.996;2022-08-18T03:03:14;96089.94;;;18.83;100.00
25080;BME280;13071;48.868;9.996;2022-08-18T03:05:42;96094.63;;;18.86;100.00
25080;BME280;13071;48.868;9.996;2022-08-18T03:08:08;96088.00;;;18.83;100.00
25080;BME280;13071;48.868;9.996;2022-08-18T03:10:36;96089.56;;;18.84;100.00
25080;BME280;13071;48.868;9.996;2022-08-18T03:13:03;96082.88;;;18.89;100.00
25080;BME280;13071;48.868;9.996;2022-08-18T03:15:30;96085.97;;;18.94;100.00
25080;BME280;13071;48.868;9.996;2022-08-18T03:17:57;96084.81;;;18.92;100.00
25080;BME280;13071;48.868;9.996;2022-08-18T03:20:24;96084.03;;;18.91;100.00
25080;BME280;13071;48.868;9.996;2022-08-18T03:22:52;96077.78;;;18.87;100.00
25080;BME280;13071;48.868;9.996;2022-08-18T03:25:19;96068.41;;;18.81;100.00
25080;BME280;13071;48.868;9.996;2022-08-18T03:27:46;96078.59;;;18.84;100.00
25080;BME280;13071;48.868;9.996;2022-08-18T03:30:12;96081.75;;;18.79;100.00
25080;BME280;13071;48.868;9.996;2022-08-18T03:32:39;96082.09;;;18.85;100.00
25080;BME280;13071;48.868;9.996;2022-08-18T03:35:06;96070.78;;;18.79;100.00
25080;BME280;13071;48.868;9.996;2022-08-18T03:37:33;96071.97;;;18.68;100.00
25080;BME280;13071;48.868;9.996;2022-08-18T03:40:02;96070.78;;;18.72;100.00
25080;BME280;13071;48.868;9.996;2022-08-18T03:42:29;96069.63;;;18.63;100.00
25080;BME280;13071;48.868;9.996;2022-08-18T03:44:56;96064.56;;;18.54;100.00
25080;BME280;13071;48.868;9.996;2022-08-18T03:47:23;96070.78;;;18.65;100.00
25080;BME280;13071;48.868;9.996;2022-08-18T03:49:49;96068.81;;;18.73;100.00
25080;BME280;13071;48.868;9.996;2022-08-18T03:52:16;96071.19;;;18.67;100.00
25080;BME280;13071;48.868;9.996;2022-08-18T03:54:42;96069.59;;;18.66;100.00
25080;BME280;13071;48.868;9.996;2022-08-18T03:57:11;96063.72;;;18.71;100.00
25080;BME280;13071;48.868;9.996;2022-08-18T03:59:38;96076.66;;;18.74;100.00
25080;BME280;13071;48.868;9.996;2022-08-18T04:02:08;96076.66;;;18.71;100.00
25080;BME280;13071;48.868;9.996;2022-08-18T04:04:35;96074.69;;;18.78;100.00
25080;BME280;13071;48.868;9.996;2022-08-18T04:07:06;96078.63;;;18.63;100.00
25080;BME280;13071;48.868;9.996;2022-08-18T04:09:34;96066.50;;;18.68;100.00
25080;BME280;13071;48.868;9.996;2022-08-18T04:12:04;96074.72;;;18.64;100.00
25080;BME280;13071;48.868;9.996;2022-08-18T04:14:38;96073.94;;;18.60;100.00
25080;BME280;13071;48.868;9.996;2022-08-18T04:17:06;96082.53;;;18.62;100.00
25080;BME280;13071;48.868;9.996;2022-08-18T04:19:33;96091.16;;;18.68;100.00
25080;BME280;13071;48.868;9.996;2022-08-18T04:22:01;96082.13;;;18.71;100.00
25080;BME280;13071;48.868;9.996;2022-08-18T04:24:29;96086.81;;;18.70;100.00
25080;BME280;13071;48.868;9.996;2022-08-18T04:26:57;96089.19;;;18.68;100.00
25080;BME280;13071;48.868;9.996;2022-08-18T04:29:26;96088.38;;;18.78;100.00
25080;BME280;13071;48.868;9.996;2022-08-18T04:31:54;96088.38;;;18.78;100.00
25080;BME280;13071;48.868;9.996;2022-08-18T04:34:21;96089.56;;;18.84;100.00
25080;BME280;13071;48.868;9.996;2022-08-18T04:36:49;96092.25;;;18.91;100.00
25080;BME280;13071;48.868;9.996;2022-08-18T04:39:18;96091.03;;;19.07;100.00
25080;BME280;13071;48.868;9.996;2022-08-18T04:41:45;96083.97;;;19.13;100.00
25080;BME280;13071;48.868;9.996;2022-08-18T04:44:12;96082.38;;;19.15;100.00
25080;BME280;13071;48.868;9.996;2022-08-18T04:46:45;96091.78;;;19.18;100.00
25080;BME280;13071;48.868;9.996;2022-08-18T04:49:15;96101.94;;;19.24;100.00
25080;BME280;13071;48.868;9.996;2022-08-18T04:51:46;96110.13;;;19.31;100.00
25080;BME280;13071;48.868;9.996;2022-08-18T04:54:35;96106.97;;;19.40;100.00
25080;BME280;13071;48.868;9.996;2022-08-18T04:57:08;96113.19;;;19.55;100.00
25080;BME280;13071;48.868;9.996;2022-08-18T04:59:35;96106.91;;;19.54;100.00
25080;BME280;13071;48.868;9.996;2022-08-18T05:02:03;96118.63;;;19.65;100.00
25080;BME280;13071;48.868;9.996;2022-08-18T05:04:34;96119.09;;;19.50;100.00
25080;BME280;13071;48.868;9.996;2022-08-18T05:07:03;96122.28;;;19.37;100.00
25080;BME280;13071;48.868;9.996;2022-08-18T05:09:30;96123.41;;;19.40;100.00
25080;BME280;13071;48.868;9.996;2022-08-18T05:11:57;96123.06;;;19.31;100.00
25080;BME280;13071;48.868;9.996;2022-08-18T05:14:24;96128.13;;;19.39;100.00
25080;BME280;13071;48.868;9.996;2022-08-18T05:16:50;96131.69;;;19.29;100.00
25080;BME280;13071;48.868;9.996;2022-08-18T05:19:19;96130.94;;;19.25;100.00
25080;BME280;13071;48.868;9.996;2022-08-18T05:21:48;96125.03;;;19.30;100.00
25080;BME280;13071;48.868;9.996;2022-08-18T05:24:15;96118.03;;;19.22;100.00
25080;BME280;13071;48.868;9.996;2022-08-18T05:26:41;96118.75;;;19.33;100.00
25080;BME280;13071;48.868;9.996;2022-08-18T05:29:08;96123.13;;;19.24;100.00
25080;BME280;13071;48.868;9.996;2022-08-18T05:31:35;96130.16;;;19.21;100.00
25080;BME280;13071;48.868;9.996;2022-08-18T05:34:02;96125.84;;;19.27;100.00
25080;BME280;13071;48.868;9.996;2022-08-18T05:36:55;96125.81;;;19.38;100.00
25080;BME280;13071;48.868;9.996;2022-08-18T05:39:25;96124.63;;;19.32;100.00
25080;BME280;13071;48.868;9.996;2022-08-18T05:42:00;96130.53;;;19.27;100.00
25080;BME280;13071;48.868;9.996;2022-08-18T05:44:32;96131.31;;;19.31;100.00
25080;BME280;13071;48.868;9.996;2022-08-18T05:47:02;96132.50;;;19.26;100.00
25080;BME280;13071;48.868;9.996;2022-08-18T05:49:33;96130.50;;;19.30;100.00
25080;BME280;13071;48.868;9.996;2022-08-18T05:52:04;96141.47;;;19.37;100.00
25080;BME280;13071;48.868;9.996;2022-08-18T05:54:37;96139.56;;;19.27;100.00
25080;BME280;13071;48.868;9.996;2022-08-18T05:57:24;96137.94;;;19.44;100.00
25080;BME280;13071;48.868;9.996;2022-08-18T05:59:53;96134.38;;;19.51;100.00
25080;BME280;13071;48.868;9.996;2022-08-18T06:02:30;96149.69;;;19.41;100.00
25080;BME280;13071;48.868;9.996;2022-08-18T06:05:00;96168.50;;;19.39;100.00
25080;BME280;13071;48.868;9.996;2022-08-18T06:07:34;96184.97;;;19.53;100.00
25080;BME280;13071;48.868;9.996;2022-08-18T06:10:04;96189.66;;;19.49;100.00
25080;BME280;13071;48.868;9.996;2022-08-18T06:12:34;96179.47;;;19.50;100.00
25080;BME280;13071;48.868;9.996;2022-08-18T06:15:05;96176.72;;;19.57;100.00
25080;BME280;13071;48.868;9.996;2022-08-18T06:17:46;96188.09;;;19.52;100.00
25080;BME280;13071;48.868;9.996;2022-08-18T06:20:20;96186.16;;;19.45;100.00
25080;BME280;13071;48.868;9.996;2022-08-18T06:23:01;96175.19;;;19.45;100.00
25080;BME280;13071;48.868;9.996;2022-08-18T06:25:44;96179.09;;;19.48;100.00
25080;BME280;13071;48.868;9.996;2022-08-18T06:28:15;96172.00;;;19.57;100.00
25080;BME280;13071;48.868;9.996;2022-08-18T06:30:47;96162.19;;;19.63;100.00
25080;BME280;13071;48.868;9.996;2022-08-18T06:33:34;96161.38;;;19.59;100.00
25080;BME280;13071;48.868;9.996;2022-08-18T06:36:08;96156.28;;;19.68;100.00
25080;BME280;13071;48.868;9.996;2022-08-18T06:38:46;96165.28;;;19.72;100.00
25080;BME280;13071;48.868;9.996;2022-08-18T06:41:19;96157.41;;;19.74;99.20
25080;BME280;13071;48.868;9.996;2022-08-18T06:43:57;96158.44;;;19.98;97.51
25080;BME280;13071;48.868;9.996;2022-08-18T06:46:31;96174.00;;;20.19;96.45
25080;BME280;13071;48.868;9.996;2022-08-18T06:49:04;96173.19;;;20.25;97.25
25080;BME280;13071;48.868;9.996;2022-08-18T06:51:32;96183.75;;;20.34;98.24
25080;BME280;13071;48.868;9.996;2022-08-18T06:54:02;96183.22;;;20.50;97.76
25080;BME280;13071;48.868;9.996;2022-08-18T06:56:46;96180.41;;;20.60;96.78
25080;BME280;13071;48.868;9.996;2022-08-18T06:59:17;96188.25;;;20.58;97.26
25080;BME280;13071;48.868;9.996;2022-08-18T07:01:45;96175.31;;;20.59;96.22
25080;BME280;13071;48.868;9.996;2022-08-18T07:07:28;96175.69;;;20.57;95.97
25080;BME280;13071;48.868;9.996;2022-08-18T07:09:57;96162.28;;;20.66;94.47
25080;BME280;13071;48.868;9.996;2022-08-18T07:12:25;96167.34;;;20.72;94.65
25080;BME280;13071;48.868;9.996;2022-08-18T07:14:55;96170.75;;;20.86;93.50
25080;BME280;13071;48.868;9.996;2022-08-18T07:17:25;96171.19;;;20.78;92.43
25080;BME280;13071;48.868;9.996;2022-08-18T07:20:01;96169.63;;;20.80;92.75
25080;BME280;13071;48.868;9.996;2022-08-18T07:22:30;96162.28;;;20.63;95.24
25080;BME280;13071;48.868;9.996;2022-08-18T07:25:00;96158.53;;;20.91;91.06
25080;BME280;13071;48.868;9.996;2022-08-18T07:27:44;96156.59;;;20.40;95.04
25080;BME280;13071;48.868;9.996;2022-08-18T07:30:26;96151.00;;;20.54;92.23
25080;BME280;13071;48.868;9.996;2022-08-18T07:32:56;96153.97;;;20.18;94.39
25080;BME280;13071;48.868;9.996;2022-08-18T07:35:29;96164.03;;;20.87;92.16
25080;BME280;13071;48.868;9.996;2022-08-18T07:38:01;96162.91;;;21.22;90.13
25080;BME280;13071;48.868;9.996;2022-08-18T07:40:34;96150.69;;;21.27;88.96
25080;BME280;13071;48.868;9.996;2022-08-18T07:43:05;96152.47;;;21.44;89.50
25080;BME280;13071;48.868;9.996;2022-08-18T07:45:36;96153.19;;;20.73;91.70
25080;BME280;13071;48.868;9.996;2022-08-18T07:48:14;96145.22;;;21.23;87.72
25080;BME280;13071;48.868;9.996;2022-08-18T07:50:47;96146.16;;;21.09;88.07
25080;BME280;13071;48.868;9.996;2022-08-18T07:53:28;96139.44;;;21.48;86.93
25080;BME280;13071;48.868;9.996;2022-08-18T07:56:04;96146.13;;;21.47;87.99
25080;BME280;13071;48.868;9.996;2022-08-18T07:58:38;96143.44;;;21.74;86.96
25080;BME280;13071;48.868;9.996;2022-08-18T08:01:12;96143.19;;;21.61;87.44
25080;BME280;13071;48.868;9.996;2022-08-18T08:03:49;96147.97;;;21.57;87.95
25080;BME280;13071;48.868;9.996;2022-08-18T08:06:24;96148.03;;;22.11;86.33
25080;BME280;13071;48.868;9.996;2022-08-18T08:09:04;96163.41;;;22.35;84.91
25080;BME280;13071;48.868;9.996;2022-08-18T08:11:42;96166.19;;;22.35;84.84
25080;BME280;13071;48.868;9.996;2022-08-18T08:14:20;96159.72;;;21.95;86.53
25080;BME280;13071;48.868;9.996;2022-08-18T08:17:01;96174.69;;;21.60;86.01
25080;BME280;13071;48.868;9.996;2022-08-18T08:22:39;96174.41;;;22.12;84.08
25080;BME280;13071;48.868;9.996;2022-08-18T08:25:16;96187.97;;;21.99;86.45
25080;BME280;13071;48.868;9.996;2022-08-18T08:27:59;96188.88;;;21.89;87.17
25080;BME280;13071;48.868;9.996;2022-08-18T08:30:36;96196.91;;;21.76;87.68
25080;BME280;13071;48.868;9.996;2022-08-18T08:33:12;96189.84;;;21.75;87.38
25080;BME280;13071;48.868;9.996;2022-08-18T08:35:45;96178.84;;;21.75;87.94
25080;BME280;13071;48.868;9.996;2022-08-18T08:38:17;96182.06;;;21.67;87.70
25080;BME280;13071;48.868;9.996;2022-08-18T08:40:49;96181.00;;;21.57;88.95
25080;BME280;13071;48.868;9.996;2022-08-18T08:43:24;96199.81;;;21.66;87.96
25080;BME280;13071;48.868;9.996;2022-08-18T08:46:00;96188.19;;;21.51;88.41
25080;BME280;13071;48.868;9.996;2022-08-18T08:48:32;96185.66;;;21.64;87.65
25080;BME280;13071;48.868;9.996;2022-08-18T08:51:02;96188.75;;;21.69;87.30
25080;BME280;13071;48.868;9.996;2022-08-18T08:53:34;96186.75;;;21.70;88.35
25080;BME280;13071;48.868;9.996;2022-08-18T08:56:07;96188.47;;;21.90;88.14
25080;BME280;13071;48.868;9.996;2022-08-18T08:58:41;96178.22;;;21.91;87.26
25080;BME280;13071;48.868;9.996;2022-08-18T09:01:23;96184.78;;;22.01;85.80
25080;BME280;13071;48.868;9.996;2022-08-18T09:03:58;96174.22;;;21.95;87.30
25080;BME280;13071;48.868;9.996;2022-08-18T09:06:34;96147.91;;;21.94;85.66
25080;BME280;13071;48.868;9.996;2022-08-18T09:09:16;96152.81;;;21.80;86.26
25080;BME280;13071;48.868;9.996;2022-08-18T09:12:08;96152.41;;;21.78;87.08
25080;BME280;13071;48.868;9.996;2022-08-18T09:14:59;96144.03;;;20.87;91.94
25080;BME280;13071;48.868;9.996;2022-08-18T09:18:02;96130.69;;;21.23;90.53
25080;BME280;13071;48.868;9.996;2022-08-18T09:20:46;96117.72;;;20.82;92.98
25080;BME280;13071;48.868;9.996;2022-08-18T09:23:17;96109.06;;;20.84;92.68
25080;BME280;13071;48.868;9.996;2022-08-18T09:25:47;96115.81;;;20.79;91.88
25080;BME280;13071;48.868;9.996;2022-08-18T09:28:16;96120.88;;;21.52;89.73
25080;BME280;13071;48.868;9.996;2022-08-18T09:30:50;96118.78;;;21.33;87.93
25080;BME280;13071;48.868;9.996;2022-08-18T09:33:22;96123.09;;;21.64;87.53
25080;BME280;13071;48.868;9.996;2022-08-18T09:36:19;96113.03;;;21.20;89.11
25080;BME280;13071;48.868;9.996;2022-08-18T09:38:52;96112.41;;;21.02;88.49
25080;BME280;13071;48.868;9.996;2022-08-18T09:41:46;96126.91;;;21.74;85.33
25080;BME280;13071;48.868;9.996;2022-08-18T09:50:38;96141.97;;;21.96;83.94
25080;BME280;13071;48.868;9.996;2022-08-18T09:53:33;96147.38;;;22.03;84.37
25080;BME280;13071;48.868;9.996;2022-08-18T09:56:02;96146.53;;;22.33;83.42
25080;BME280;13071;48.868;9.996;2022-08-18T09:58:56;96144.47;;;22.64;80.97
25080;BME280;13071;48.868;9.996;2022-08-18T10:01:35;96124.78;;;22.85;82.72
25080;BME280;13071;48.868;9.996;2022-08-18T10:04:24;96134.81;;;22.52;83.63
25080;BME280;13071;48.868;9.996;2022-08-18T10:06:52;96141.91;;;22.76;80.94
25080;BME280;13071;48.868;9.996;2022-08-18T10:09:32;96143.47;;;21.70;82.57
25080;BME280;13071;48.868;9.996;2022-08-18T10:12:24;96145.66;;;21.82;85.55
25080;BME280;13071;48.868;9.996;2022-08-18T10:15:07;96139.31;;;22.16;84.28
25080;BME280;13071;48.868;9.996;2022-08-18T10:17:53;96137.72;;;22.18;84.20
25080;BME280;13071;48.868;9.996;2022-08-18T10:20:32;96135.31;;;21.63;87.02
25080;BME280;13071;48.868;9.996;2022-08-18T10:23:04;96132.63;;;21.86;85.71
25080;BME280;13071;48.868;9.996;2022-08-18T10:25:35;96128.63;;;22.68;82.02
25080;BME280;13071;48.868;9.996;2022-08-18T10:28:04;96120.28;;;22.25;83.37
25080;BME280;13071;48.868;9.996;2022-08-18T10:31:04;96116.22;;;22.79;79.53
25080;BME280;13071;48.868;9.996;2022-08-18T10:33:57;96115.28;;;23.09;79.60
25080;BME280;13071;48.868;9.996;2022-08-18T10:36:43;96118.78;;;23.13;78.21
25080;BME280;13071;48.868;9.996;2022-08-18T10:39:15;96111.66;;;22.23;81.10
25080;BME280;13071;48.868;9.996;2022-08-18T10:41:53;96093.81;;;22.77;81.08
25080;BME280;13071;48.868;9.996;2022-08-18T10:44:22;96090.44;;;22.66;81.19
25080;BME280;13071;48.868;9.996;2022-08-18T10:46:50;96081.16;;;23.00;79.51
25080;BME280;13071;48.868;9.996;2022-08-18T10:49:23;96070.13;;;23.00;78.47
25080;BME280;13071;48.868;9.996;2022-08-18T10:54:56;96048.69;;;23.07;77.52
25080;BME280;13071;48.868;9.996;2022-08-18T10:57:31;96054.28;;;23.23;78.86
25080;BME280;13071;48.868;9.996;2022-08-18T11:00:04;96066.75;;;23.51;77.29
25080;BME280;13071;48.868;9.996;2022-08-18T11:02:43;96074.75;;;23.82;78.90
25080;BME280;13071;48.868;9.996;2022-08-18T11:05:20;96065.78;;;24.10;76.54
25080;BME280;13071;48.868;9.996;2022-08-18T11:07:56;96060.97;;;24.30;74.33
25080;BME280;13071;48.868;9.996;2022-08-18T11:10:35;96069.19;;;24.18;74.19
25080;BME280;13071;48.868;9.996;2022-08-18T11:13:08;96068.66;;;24.39;74.35
25080;BME280;13071;48.868;9.996;2022-08-18T11:15:45;96066.41;;;24.34;74.47
25080;BME280;13071;48.868;9.996;2022-08-18T11:18:25;96053.94;;;23.21;74.80
25080;BME280;13071;48.868;9.996;2022-08-18T11:24:06;96057.53;;;23.18;75.83
25080;BME280;13071;48.868;9.996;2022-08-18T11:26:36;96048.59;;;23.86;73.83
25080;BME280;13071;48.868;9.996;2022-08-18T11:29:16;96045.56;;;23.81;73.69
25080;BME280;13071;48.868;9.996;2022-08-18T11:31:44;96041.09;;;24.35;71.78
25080;BME280;13071;48.868;9.996;2022-08-18T11:34:14;96042.56;;;24.24;73.59
25080;BME280;13071;48.868;9.996;2022-08-18T11:36:42;96050.13;;;23.71;75.96
25080;BME280;13071;48.868;9.996;2022-08-18T11:39:09;96045.06;;;24.34;72.41
25080;BME280;13071;48.868;9.996;2022-08-18T11:41:37;96048.16;;;24.98;70.58
25080;BME280;13071;48.868;9.996;2022-08-18T11:44:15;96057.13;;;24.73;69.96
25080;BME280;13071;48.868;9.996;2022-08-18T11:46:45;96072.25;;;24.68;70.35
25080;BME280;13071;48.868;9.996;2022-08-18T11:49:15;96072.34;;;25.10;68.62
25080;BME280;13071;48.868;9.996;2022-08-18T11:51:57;96054.28;;;24.76;69.48
25080;BME280;13071;48.868;9.996;2022-08-18T11:54:33;96041.59;;;24.91;68.94
25080;BME280;13071;48.868;9.996;2022-08-18T11:57:30;96045.59;;;24.29;70.88
25080;BME280;13071;48.868;9.996;2022-08-18T12:00:41;96050.75;;;24.43;70.29
25080;BME280;13071;48.868;9.996;2022-08-18T12:03:15;96051.28;;;25.00;68.65
25080;BME280;13071;48.868;9.996;2022-08-18T12:05:46;96045.88;;;24.80;69.74
25080;BME280;13071;48.868;9.996;2022-08-18T12:08:19;96038.00;;;25.07;67.81
25080;BME280;13071;48.868;9.996;2022-08-18T12:10:47;96026.69;;;25.30;67.08
25080;BME280;13071;48.868;9.996;2022-08-18T12:13:22;96024.22;;;25.32;66.41
25080;BME280;13071;48.868;9.996;2022-08-18T12:16:07;96025.25;;;25.51;67.07
25080;BME280;13071;48.868;9.996;2022-08-18T12:18:35;96021.94;;;25.44;66.32
25080;BME280;13071;48.868;9.996;2022-08-18T12:21:02;96016.50;;;25.53;65.17
25080;BME280;13071;48.868;9.996;2022-08-18T12:23:28;96011.78;;;25.78;65.71
25080;BME280;13071;48.868;9.996;2022-08-18T12:25:55;96008.25;;;25.65;67.08
25080;BME280;13071;48.868;9.996;2022-08-18T12:28:23;95994.47;;;25.62;66.91
25080;BME280;13071;48.868;9.996;2022-08-18T12:30:51;95986.03;;;25.91;65.11
25080;BME280;13071;48.868;9.996;2022-08-18T12:33:17;95991.34;;;25.98;64.93
25080;BME280;13071;48.868;9.996;2022-08-18T12:35:44;95984.25;;;25.97;63.79
25080;BME280;13071;48.868;9.996;2022-08-18T12:38:11;95972.94;;;25.91;65.11
25080;BME280;13071;48.868;9.996;2022-08-18T12:40:40;95971.84;;;25.76;65.59
25080;BME280;13071;48.868;9.996;2022-08-18T12:43:07;95954.91;;;25.74;64.38
25080;BME280;13071;48.868;9.996;2022-08-18T12:45:35;95961.00;;;25.56;64.67
25080;BME280;13071;48.868;9.996;2022-08-18T12:48:02;95944.16;;;24.84;65.58
25080;BME280;13071;48.868;9.996;2022-08-18T12:50:29;95938.50;;;25.29;64.66
25080;BME280;13071;48.868;9.996;2022-08-18T12:52:55;95931.28;;;25.44;63.67
25080;BME280;13071;48.868;9.996;2022-08-18T12:55:22;95917.88;;;25.68;62.57
25080;BME280;13071;48.868;9.996;2022-08-18T12:57:49;95914.78;;;25.15;64.22
25080;BME280;13071;48.868;9.996;2022-08-18T13:00:16;95917.88;;;25.17;64.66
25080;BME280;13071;48.868;9.996;2022-08-18T13:02:45;95908.56;;;25.49;63.17
25080;BME280;13071;48.868;9.996;2022-08-18T13:05:12;95905.72;;;25.40;63.34
25080;BME280;13071;48.868;9.996;2022-08-18T13:07:38;95898.38;;;25.33;63.02
25080;BME280;13071;48.868;9.996;2022-08-18T13:10:06;95912.22;;;25.46;63.27
25080;BME280;13071;48.868;9.996;2022-08-18T13:12:33;95928.63;;;25.15;63.81
25080;BME280;13071;48.868;9.996;2022-08-18T13:15:00;95918.41;;;25.12;64.55
25080;BME280;13071;48.868;9.996;2022-08-18T13:17:26;95916.09;;;25.23;64.63
25080;BME280;13071;48.868;9.996;2022-08-18T13:19:54;95918.75;;;25.52;63.33
25080;BME280;13071;48.868;9.996;2022-08-18T13:22:21;95921.53;;;25.52;63.59
25080;BME280;13071;48.868;9.996;2022-08-18T13:24:47;95926.06;;;25.08;64.76
25080;BME280;13071;48.868;9.996;2022-08-18T13:27:15;95918.22;;;25.45;63.69
25080;BME280;13071;48.868;9.996;2022-08-18T13:29:44;95914.03;;;25.65;62.23
25080;BME280;13071;48.868;9.996;2022-08-18T13:32:10;95914.63;;;25.95;62.04
25080;BME280;13071;48.868;9.996;2022-08-18T13:34:37;95913.88;;;26.16;60.94
25080;BME280;13071;48.868;9.996;2022-08-18T13:37:05;95916.34;;;26.14;60.81
25080;BME280;13071;48.868;9.996;2022-08-18T13:39:31;95917.53;;;25.66;61.87